Portada
METAR-TAF:

METAR-TAF

Aeroports :

Galesburg Municipal Airport

Galesburg, Illinois, Estats Units d'Amèrica

latitud: 40-56-17N, longitud: 090-25-52W, altitud: 233 m

Observació

L'informe es va fer fa 19 minuts, a les 18:55 UTC
Vent 14 kt del Oest amb ràfegues de 19 kt
Temperatura 10°C
Humitat 50%
Pressió 1021 hPa
Visibilitat: 16.1 km
Cel clar

METAR: KGBG 131855Z AUTO 28014G19KT 10SM CLR 10/00 A3016 RMK AO2 T01041005

Hora: 14:14 (19:14 UTC)


TAF: manca

Observacions i pronòstics meteorològics de més de 4000 aeroports (METAR i TAF).

Les estacions disponibles són els punts grocs i vermells al mapa.

Posi el ratolí al punt desitjat per veure el nom de l'estació.

Feu clic per veure les observacions i els pronòstics meteorològics.

Per canviar el mapa: feu clic els botons verds amb una creu de color negre per apropar; al botó verd amb un guió per allunyar la imatge; o en les fletxes verdes per a mapes adjacents.


METAR-TAF: